sensor_id;sensor_type;location;lat;lon;timestamp;P1;durP1;ratioP1;P2;durP2;ratioP2
50495;SDS011;38806;51.554;5.704;2023-01-28T00:00:02;17.20;;;8.63;;
50495;SDS011;38806;51.554;5.704;2023-01-28T00:02:02;15.55;;;8.82;;
50495;SDS011;38806;51.554;5.704;2023-01-28T00:04:03;16.00;;;8.57;;
50495;SDS011;38806;51.554;5.704;2023-01-28T00:06:04;19.63;;;10.13;;
50495;SDS011;38806;51.554;5.704;2023-01-28T00:08:05;17.88;;;8.88;;
50495;SDS011;38806;51.554;5.704;2023-01-28T00:10:05;18.90;;;9.52;;
50495;SDS011;38806;51.554;5.704;2023-01-28T00:12:05;20.92;;;10.35;;
50495;SDS011;38806;51.554;5.704;2023-01-28T00:14:06;16.92;;;9.32;;
50495;SDS011;38806;51.554;5.704;2023-01-28T00:16:06;17.05;;;9.10;;
50495;SDS011;38806;51.554;5.704;2023-01-28T00:18:07;17.20;;;9.60;;
50495;SDS011;38806;51.554;5.704;2023-01-28T00:20:08;20.15;;;9.93;;
50495;SDS011;38806;51.554;5.704;2023-01-28T00:22:08;19.25;;;10.82;;
50495;SDS011;38806;51.554;5.704;2023-01-28T00:24:08;18.15;;;9.38;;
50495;SDS011;38806;51.554;5.704;2023-01-28T00:26:10;16.90;;;9.90;;
50495;SDS011;38806;51.554;5.704;2023-01-28T00:28:10;17.98;;;8.68;;
50495;SDS011;38806;51.554;5.704;2023-01-28T00:30:11;19.30;;;9.38;;
50495;SDS011;38806;51.554;5.704;2023-01-28T00:32:11;17.90;;;9.55;;
50495;SDS011;38806;51.554;5.704;2023-01-28T00:34:11;17.83;;;9.32;;
50495;SDS011;38806;51.554;5.704;2023-01-28T00:36:12;14.77;;;8.65;;
50495;SDS011;38806;51.554;5.704;2023-01-28T00:38:12;16.80;;;9.02;;
50495;SDS011;38806;51.554;5.704;2023-01-28T00:40:12;18.27;;;9.45;;
50495;SDS011;38806;51.554;5.704;2023-01-28T00:42:13;17.20;;;9.10;;
50495;SDS011;38806;51.554;5.704;2023-01-28T00:44:13;17.92;;;10.23;;
50495;SDS011;38806;51.554;5.704;2023-01-28T00:46:13;16.35;;;9.80;;
50495;SDS011;38806;51.554;5.704;2023-01-28T00:48:14;19.40;;;8.48;;
50495;SDS011;38806;51.554;5.704;2023-01-28T00:50:14;16.92;;;8.70;;
50495;SDS011;38806;51.554;5.704;2023-01-28T00:52:14;17.27;;;9.40;;
50495;SDS011;38806;51.554;5.704;2023-01-28T00:54:15;15.02;;;7.78;;
50495;SDS011;38806;51.554;5.704;2023-01-28T00:56:16;15.77;;;7.78;;
50495;SDS011;38806;51.554;5.704;2023-01-28T00:58:17;15.23;;;7.47;;
50495;SDS011;38806;51.554;5.704;2023-01-28T01:00:17;14.10;;;8.32;;
50495;SDS011;38806;51.554;5.704;2023-01-28T01:02:20;18.23;;;8.27;;
50495;SDS011;38806;51.554;5.704;2023-01-28T01:04:20;17.42;;;9.18;;
50495;SDS011;38806;51.554;5.704;2023-01-28T01:06:25;17.88;;;9.30;;
50495;SDS011;38806;51.554;5.704;2023-01-28T01:08:25;16.92;;;9.30;;
50495;SDS011;38806;51.554;5.704;2023-01-28T01:10:33;16.15;;;8.15;;
50495;SDS011;38806;51.554;5.704;2023-01-28T01:12:34;17.33;;;9.48;;
50495;SDS011;38806;51.554;5.704;2023-01-28T01:14:34;17.80;;;10.13;;
50495;SDS011;38806;51.554;5.704;2023-01-28T01:16:34;16.48;;;8.48;;
50495;SDS011;38806;51.554;5.704;2023-01-28T01:18:35;21.73;;;9.60;;
50495;SDS011;38806;51.554;5.704;2023-01-28T01:20:35;20.42;;;11.40;;
50495;SDS011;38806;51.554;5.704;2023-01-28T01:22:38;16.70;;;8.98;;
50495;SDS011;38806;51.554;5.704;2023-01-28T01:24:39;17.08;;;9.05;;
50495;SDS011;38806;51.554;5.704;2023-01-28T01:26:39;17.27;;;9.05;;
50495;SDS011;38806;51.554;5.704;2023-01-28T01:28:39;18.80;;;8.65;;
50495;SDS011;38806;51.554;5.704;2023-01-28T01:30:39;17.77;;;8.75;;
50495;SDS011;38806;51.554;5.704;2023-01-28T01:32:40;16.83;;;9.18;;
50495;SDS011;38806;51.554;5.704;2023-01-28T01:34:40;20.58;;;10.75;;
50495;SDS011;38806;51.554;5.704;2023-01-28T01:36:40;18.88;;;10.20;;
50495;SDS011;38806;51.554;5.704;2023-01-28T01:38:42;17.58;;;9.20;;
50495;SDS011;38806;51.554;5.704;2023-01-28T01:40:43;20.42;;;9.75;;
50495;SDS011;38806;51.554;5.704;2023-01-28T01:42:43;21.00;;;9.55;;
50495;SDS011;38806;51.554;5.704;2023-01-28T01:46:59;15.25;;;8.43;;
50495;SDS011;38806;51.554;5.704;2023-01-28T01:49:02;15.40;;;9.80;;
50495;SDS011;38806;51.554;5.704;2023-01-28T01:51:06;16.42;;;9.30;;
50495;SDS011;38806;51.554;5.704;2023-01-28T01:53:08;18.42;;;9.48;;
50495;SDS011;38806;51.554;5.704;2023-01-28T01:55:11;22.88;;;10.60;;
50495;SDS011;38806;51.554;5.704;2023-01-28T01:57:13;20.77;;;10.60;;
50495;SDS011;38806;51.554;5.704;2023-01-28T01:59:16;20.20;;;9.02;;
50495;SDS011;38806;51.554;5.704;2023-01-28T02:01:19;18.45;;;9.70;;
50495;SDS011;38806;51.554;5.704;2023-01-28T02:03:22;21.70;;;11.65;;
50495;SDS011;38806;51.554;5.704;2023-01-28T02:05:25;18.80;;;9.95;;
50495;SDS011;38806;51.554;5.704;2023-01-28T02:07:26;22.50;;;11.93;;
50495;SDS011;38806;51.554;5.704;2023-01-28T02:09:27;16.50;;;10.05;;
50495;SDS011;38806;51.554;5.704;2023-01-28T02:11:29;22.30;;;11.23;;
50495;SDS011;38806;51.554;5.704;2023-01-28T02:13:33;18.88;;;9.50;;
50495;SDS011;38806;51.554;5.704;2023-01-28T02:15:34;20.77;;;10.52;;
50495;SDS011;38806;51.554;5.704;2023-01-28T02:17:35;21.63;;;10.30;;
50495;SDS011;38806;51.554;5.704;2023-01-28T02:19:36;16.35;;;9.80;;
50495;SDS011;38806;51.554;5.704;2023-01-28T02:21:43;20.02;;;10.50;;
50495;SDS011;38806;51.554;5.704;2023-01-28T02:30:20;18.30;;;10.02;;
50495;SDS011;38806;51.554;5.704;2023-01-28T02:32:23;22.38;;;10.77;;
50495;SDS011;38806;51.554;5.704;2023-01-28T02:36:41;18.70;;;10.50;;
50495;SDS011;38806;51.554;5.704;2023-01-28T02:38:47;17.38;;;10.15;;
50495;SDS011;38806;51.554;5.704;2023-01-28T02:40:49;21.15;;;11.10;;
50495;SDS011;38806;51.554;5.704;2023-01-28T02:43:05;21.17;;;10.95;;
50495;SDS011;38806;51.554;5.704;2023-01-28T02:45:27;21.02;;;10.90;;
50495;SDS011;38806;51.554;5.704;2023-01-28T02:47:46;19.45;;;10.77;;
50495;SDS011;38806;51.554;5.704;2023-01-28T02:49:59;20.60;;;10.98;;
50495;SDS011;38806;51.554;5.704;2023-01-28T02:54:22;18.95;;;11.07;;
50495;SDS011;38806;51.554;5.704;2023-01-28T02:56:30;19.40;;;10.20;;
50495;SDS011;38806;51.554;5.704;2023-01-28T02:58:36;19.35;;;9.88;;
50495;SDS011;38806;51.554;5.704;2023-01-28T03:00:55;21.13;;;11.35;;
50495;SDS011;38806;51.554;5.704;2023-01-28T03:07:01;17.80;;;9.35;;
50495;SDS011;38806;51.554;5.704;2023-01-28T03:09:04;21.77;;;11.02;;
50495;SDS011;38806;51.554;5.704;2023-01-28T03:11:25;19.10;;;9.77;;
50495;SDS011;38806;51.554;5.704;2023-01-28T03:13:45;20.73;;;11.05;;
50495;SDS011;38806;51.554;5.704;2023-01-28T03:16:05;19.27;;;11.05;;
50495;SDS011;38806;51.554;5.704;2023-01-28T03:18:24;17.50;;;9.95;;
50495;SDS011;38806;51.554;5.704;2023-01-28T03:21:04;19.50;;;9.30;;
50495;SDS011;38806;51.554;5.704;2023-01-28T03:23:27;20.10;;;10.65;;
50495;SDS011;38806;51.554;5.704;2023-01-28T03:25:46;17.27;;;9.65;;
50495;SDS011;38806;51.554;5.704;2023-01-28T03:28:07;19.58;;;10.07;;
50495;SDS011;38806;51.554;5.704;2023-01-28T03:30:30;20.65;;;10.50;;
50495;SDS011;38806;51.554;5.704;2023-01-28T03:32:51;19.05;;;10.32;;
50495;SDS011;38806;51.554;5.704;2023-01-28T03:35:11;22.10;;;10.32;;
50495;SDS011;38806;51.554;5.704;2023-01-28T03:37:31;19.70;;;11.18;;
50495;SDS011;38806;51.554;5.704;2023-01-28T03:39:32;17.85;;;9.98;;
50495;SDS011;38806;51.554;5.704;2023-01-28T03:41:32;21.95;;;10.65;;
50495;SDS011;38806;51.554;5.704;2023-01-28T03:43:32;17.70;;;10.18;;
50495;SDS011;38806;51.554;5.704;2023-01-28T03:45:33;18.38;;;9.15;;
50495;SDS011;38806;51.554;5.704;2023-01-28T03:47:34;19.30;;;9.98;;
50495;SDS011;38806;51.554;5.704;2023-01-28T03:49:34;16.17;;;8.65;;
50495;SDS011;38806;51.554;5.704;2023-01-28T03:51:34;14.65;;;8.52;;
50495;SDS011;38806;51.554;5.704;2023-01-28T03:53:34;16.35;;;8.68;;
50495;SDS011;38806;51.554;5.704;2023-01-28T03:55:34;16.02;;;7.85;;
50495;SDS011;38806;51.554;5.704;2023-01-28T03:57:35;12.02;;;7.32;;
50495;SDS011;38806;51.554;5.704;2023-01-28T03:59:35;16.73;;;8.63;;
50495;SDS011;38806;51.554;5.704;2023-01-28T04:01:35;12.60;;;6.20;;
50495;SDS011;38806;51.554;5.704;2023-01-28T04:03:35;12.25;;;6.80;;
50495;SDS011;38806;51.554;5.704;2023-01-28T04:05:35;15.60;;;7.57;;
50495;SDS011;38806;51.554;5.704;2023-01-28T04:07:35;13.43;;;7.38;;
50495;SDS011;38806;51.554;5.704;2023-01-28T04:09:37;15.73;;;8.20;;
50495;SDS011;38806;51.554;5.704;2023-01-28T04:11:37;17.15;;;9.43;;
50495;SDS011;38806;51.554;5.704;2023-01-28T04:13:37;15.93;;;7.80;;
50495;SDS011;38806;51.554;5.704;2023-01-28T04:15:37;13.25;;;7.25;;
50495;SDS011;38806;51.554;5.704;2023-01-28T04:17:37;16.23;;;7.90;;
50495;SDS011;38806;51.554;5.704;2023-01-28T04:19:38;17.02;;;9.10;;
50495;SDS011;38806;51.554;5.704;2023-01-28T04:21:39;15.63;;;8.68;;
50495;SDS011;38806;51.554;5.704;2023-01-28T04:23:39;16.23;;;9.43;;
50495;SDS011;38806;51.554;5.704;2023-01-28T04:25:40;15.88;;;8.32;;
50495;SDS011;38806;51.554;5.704;2023-01-28T04:27:40;14.93;;;8.82;;
50495;SDS011;38806;51.554;5.704;2023-01-28T04:29:40;17.67;;;7.95;;
50495;SDS011;38806;51.554;5.704;2023-01-28T04:31:40;17.92;;;9.70;;
50495;SDS011;38806;51.554;5.704;2023-01-28T04:33:40;13.90;;;7.70;;
50495;SDS011;38806;51.554;5.704;2023-01-28T04:35:40;18.50;;;10.30;;
50495;SDS011;38806;51.554;5.704;2023-01-28T04:37:41;18.27;;;9.63;;
50495;SDS011;38806;51.554;5.704;2023-01-28T04:39:41;16.45;;;8.75;;
50495;SDS011;38806;51.554;5.704;2023-01-28T04:41:41;16.42;;;8.18;;
50495;SDS011;38806;51.554;5.704;2023-01-28T04:43:41;16.60;;;8.50;;
50495;SDS011;38806;51.554;5.704;2023-01-28T04:45:42;14.55;;;7.38;;
50495;SDS011;38806;51.554;5.704;2023-01-28T04:47:42;14.13;;;7.35;;
50495;SDS011;38806;51.554;5.704;2023-01-28T04:49:42;13.60;;;6.80;;
50495;SDS011;38806;51.554;5.704;2023-01-28T04:51:42;13.80;;;7.03;;
50495;SDS011;38806;51.554;5.704;2023-01-28T04:53:42;16.15;;;8.45;;
50495;SDS011;38806;51.554;5.704;2023-01-28T04:55:43;12.88;;;6.93;;
50495;SDS011;38806;51.554;5.704;2023-01-28T04:57:45;13.48;;;7.13;;
50495;SDS011;38806;51.554;5.704;2023-01-28T04:59:45;12.32;;;6.60;;
50495;SDS011;38806;51.554;5.704;2023-01-28T05:01:45;13.95;;;8.20;;
50495;SDS011;38806;51.554;5.704;2023-01-28T05:03:45;12.95;;;6.95;;
50495;SDS011;38806;51.554;5.704;2023-01-28T05:05:46;13.75;;;6.72;;
50495;SDS011;38806;51.554;5.704;2023-01-28T05:07:49;16.90;;;7.53;;
50495;SDS011;38806;51.554;5.704;2023-01-28T05:09:50;11.77;;;7.07;;
50495;SDS011;38806;51.554;5.704;2023-01-28T05:11:50;16.48;;;8.27;;
50495;SDS011;38806;51.554;5.704;2023-01-28T05:13:50;14.25;;;7.63;;
50495;SDS011;38806;51.554;5.704;2023-01-28T05:15:51;11.60;;;6.82;;
50495;SDS011;38806;51.554;5.704;2023-01-28T05:17:53;13.52;;;7.30;;
50495;SDS011;38806;51.554;5.704;2023-01-28T05:19:54;12.60;;;6.85;;
50495;SDS011;38806;51.554;5.704;2023-01-28T05:21:54;13.15;;;5.75;;
50495;SDS011;38806;51.554;5.704;2023-01-28T05:23:54;10.85;;;6.00;;
50495;SDS011;38806;51.554;5.704;2023-01-28T05:25:54;13.98;;;6.35;;
50495;SDS011;38806;51.554;5.704;2023-01-28T05:27:54;11.57;;;6.15;;
50495;SDS011;38806;51.554;5.704;2023-01-28T05:29:55;11.60;;;5.65;;
50495;SDS011;38806;51.554;5.704;2023-01-28T05:31:55;9.93;;;6.38;;
50495;SDS011;38806;51.554;5.704;2023-01-28T05:33:55;12.27;;;6.22;;
50495;SDS011;38806;51.554;5.704;2023-01-28T05:35:55;10.18;;;6.20;;
50495;SDS011;38806;51.554;5.704;2023-01-28T05:37:55;12.05;;;7.75;;
50495;SDS011;38806;51.554;5.704;2023-01-28T05:39:56;13.60;;;7.10;;
50495;SDS011;38806;51.554;5.704;2023-01-28T05:41:56;14.50;;;7.22;;
50495;SDS011;38806;51.554;5.704;2023-01-28T05:43:56;9.82;;;6.25;;
50495;SDS011;38806;51.554;5.704;2023-01-28T05:45:56;12.60;;;6.30;;
50495;SDS011;38806;51.554;5.704;2023-01-28T05:47:56;12.73;;;6.05;;
50495;SDS011;38806;51.554;5.704;2023-01-28T05:49:56;11.68;;;6.60;;
50495;SDS011;38806;51.554;5.704;2023-01-28T05:51:57;11.88;;;6.43;;
50495;SDS011;38806;51.554;5.704;2023-01-28T05:53:57;12.25;;;6.53;;
50495;SDS011;38806;51.554;5.704;2023-01-28T05:55:57;10.52;;;6.10;;
50495;SDS011;38806;51.554;5.704;2023-01-28T05:57:57;14.27;;;7.18;;
50495;SDS011;38806;51.554;5.704;2023-01-28T05:59:57;12.02;;;6.20;;
50495;SDS011;38806;51.554;5.704;2023-01-28T06:01:58;12.18;;;6.80;;
50495;SDS011;38806;51.554;5.704;2023-01-28T06:03:58;12.40;;;6.57;;
50495;SDS011;38806;51.554;5.704;2023-01-28T06:05:59;12.98;;;7.13;;
50495;SDS011;38806;51.554;5.704;2023-01-28T06:07:59;12.48;;;7.22;;
50495;SDS011;38806;51.554;5.704;2023-01-28T06:09:59;12.60;;;6.55;;
50495;SDS011;38806;51.554;5.704;2023-01-28T06:11:59;11.95;;;7.10;;
50495;SDS011;38806;51.554;5.704;2023-01-28T06:14:00;13.85;;;7.68;;
50495;SDS011;38806;51.554;5.704;2023-01-28T06:16:00;10.98;;;6.95;;
50495;SDS011;38806;51.554;5.704;2023-01-28T06:18:00;15.07;;;8.65;;
50495;SDS011;38806;51.554;5.704;2023-01-28T06:20:00;16.10;;;8.00;;
50495;SDS011;38806;51.554;5.704;2023-01-28T06:22:00;13.93;;;7.78;;
50495;SDS011;38806;51.554;5.704;2023-01-28T06:24:01;12.00;;;6.85;;
50495;SDS011;38806;51.554;5.704;2023-01-28T06:26:01;14.88;;;7.80;;
50495;SDS011;38806;51.554;5.704;2023-01-28T06:28:01;13.45;;;6.45;;
50495;SDS011;38806;51.554;5.704;2023-01-28T06:30:01;14.75;;;7.65;;
50495;SDS011;38806;51.554;5.704;2023-01-28T06:32:02;12.32;;;6.82;;
50495;SDS011;38806;51.554;5.704;2023-01-28T06:34:02;12.73;;;6.32;;
50495;SDS011;38806;51.554;5.704;2023-01-28T06:36:03;14.38;;;7.05;;
50495;SDS011;38806;51.554;5.704;2023-01-28T06:38:03;13.45;;;7.40;;
50495;SDS011;38806;51.554;5.704;2023-01-28T06:40:03;13.48;;;7.78;;
50495;SDS011;38806;51.554;5.704;2023-01-28T06:42:04;14.57;;;6.50;;
50495;SDS011;38806;51.554;5.704;2023-01-28T06:44:04;13.85;;;7.90;;
50495;SDS011;38806;51.554;5.704;2023-01-28T06:46:04;15.40;;;7.80;;
50495;SDS011;38806;51.554;5.704;2023-01-28T06:48:05;14.45;;;8.07;;
50495;SDS011;38806;51.554;5.704;2023-01-28T06:50:05;15.40;;;7.38;;
50495;SDS011;38806;51.554;5.704;2023-01-28T06:52:05;10.73;;;7.05;;
50495;SDS011;38806;51.554;5.704;2023-01-28T06:54:06;13.00;;;7.03;;
50495;SDS011;38806;51.554;5.704;2023-01-28T06:56:06;14.75;;;7.38;;
50495;SDS011;38806;51.554;5.704;2023-01-28T06:58:07;14.77;;;7.55;;
50495;SDS011;38806;51.554;5.704;2023-01-28T07:00:09;12.10;;;7.47;;
50495;SDS011;38806;51.554;5.704;2023-01-28T07:02:10;16.05;;;8.13;;
50495;SDS011;38806;51.554;5.704;2023-01-28T07:04:10;12.77;;;7.93;;
50495;SDS011;38806;51.554;5.704;2023-01-28T07:06:10;14.63;;;7.90;;
50495;SDS011;38806;51.554;5.704;2023-01-28T07:08:11;14.30;;;7.60;;
50495;SDS011;38806;51.554;5.704;2023-01-28T07:10:11;14.13;;;7.28;;
50495;SDS011;38806;51.554;5.704;2023-01-28T07:12:11;14.20;;;7.80;;
50495;SDS011;38806;51.554;5.704;2023-01-28T07:14:11;14.00;;;8.18;;
50495;SDS011;38806;51.554;5.704;2023-01-28T07:16:12;13.90;;;7.18;;
50495;SDS011;38806;51.554;5.704;2023-01-28T07:18:12;17.70;;;9.18;;
50495;SDS011;38806;51.554;5.704;2023-01-28T07:20:13;12.98;;;6.60;;
50495;SDS011;38806;51.554;5.704;2023-01-28T07:22:14;13.82;;;7.60;;
50495;SDS011;38806;51.554;5.704;2023-01-28T07:24:14;15.35;;;7.53;;
50495;SDS011;38806;51.554;5.704;2023-01-28T07:26:14;14.00;;;7.00;;
50495;SDS011;38806;51.554;5.704;2023-01-28T07:28:14;15.23;;;7.70;;
50495;SDS011;38806;51.554;5.704;2023-01-28T07:30:20;14.43;;;7.53;;
50495;SDS011;38806;51.554;5.704;2023-01-28T07:32:20;14.60;;;7.93;;
50495;SDS011;38806;51.554;5.704;2023-01-28T07:34:21;12.85;;;7.25;;
50495;SDS011;38806;51.554;5.704;2023-01-28T07:36:21;12.82;;;8.00;;
50495;SDS011;38806;51.554;5.704;2023-01-28T07:38:21;11.10;;;6.07;;
50495;SDS011;38806;51.554;5.704;2023-01-28T07:40:22;12.07;;;6.63;;
50495;SDS011;38806;51.554;5.704;2023-01-28T07:42:22;13.40;;;7.20;;
50495;SDS011;38806;51.554;5.704;2023-01-28T07:44:23;14.05;;;8.07;;
50495;SDS011;38806;51.554;5.704;2023-01-28T07:46:23;16.80;;;8.23;;
50495;SDS011;38806;51.554;5.704;2023-01-28T07:48:23;13.38;;;7.38;;
50495;SDS011;38806;51.554;5.704;2023-01-28T07:50:23;13.48;;;7.05;;
50495;SDS011;38806;51.554;5.704;2023-01-28T07:52:24;14.60;;;7.78;;
50495;SDS011;38806;51.554;5.704;2023-01-28T07:54:24;16.60;;;8.55;;
50495;SDS011;38806;51.554;5.704;2023-01-28T07:56:24;16.08;;;9.25;;
50495;SDS011;38806;51.554;5.704;2023-01-28T07:58:28;12.88;;;7.88;;
50495;SDS011;38806;51.554;5.704;2023-01-28T08:00:29;15.93;;;8.10;;
50495;SDS011;38806;51.554;5.704;2023-01-28T08:02:29;13.95;;;7.63;;
50495;SDS011;38806;51.554;5.704;2023-01-28T08:04:29;14.45;;;8.27;;
50495;SDS011;38806;51.554;5.704;2023-01-28T08:06:30;15.23;;;7.50;;
50495;SDS011;38806;51.554;5.704;2023-01-28T08:08:30;14.25;;;7.68;;
50495;SDS011;38806;51.554;5.704;2023-01-28T08:10:31;13.85;;;7.78;;
50495;SDS011;38806;51.554;5.704;2023-01-28T08:12:31;14.65;;;7.35;;
50495;SDS011;38806;51.554;5.704;2023-01-28T08:14:31;15.20;;;7.63;;
50495;SDS011;38806;51.554;5.704;2023-01-28T08:16:31;15.13;;;7.97;;
50495;SDS011;38806;51.554;5.704;2023-01-28T08:18:31;13.40;;;6.57;;
50495;SDS011;38806;51.554;5.704;2023-01-28T08:20:32;16.50;;;7.97;;
50495;SDS011;38806;51.554;5.704;2023-01-28T08:22:32;16.00;;;7.65;;
50495;SDS011;38806;51.554;5.704;2023-01-28T08:24:32;14.25;;;7.45;;
50495;SDS011;38806;51.554;5.704;2023-01-28T08:26:32;12.77;;;7.90;;
50495;SDS011;38806;51.554;5.704;2023-01-28T08:28:33;17.20;;;7.10;;
50495;SDS011;38806;51.554;5.704;2023-01-28T08:30:33;13.77;;;7.88;;
50495;SDS011;38806;51.554;5.704;2023-01-28T08:32:34;17.65;;;8.50;;
50495;SDS011;38806;51.554;5.704;2023-01-28T08:34:34;16.63;;;9.13;;
50495;SDS011;38806;51.554;5.704;2023-01-28T08:36:35;16.08;;;8.75;;
50495;SDS011;38806;51.554;5.704;2023-01-28T08:38:35;16.35;;;9.43;;
50495;SDS011;38806;51.554;5.704;2023-01-28T08:40:35;18.63;;;9.45;;
50495;SDS011;38806;51.554;5.704;2023-01-28T08:42:35;14.73;;;8.70;;
50495;SDS011;38806;51.554;5.704;2023-01-28T08:44:35;14.52;;;8.35;;
50495;SDS011;38806;51.554;5.704;2023-01-28T08:46:36;16.15;;;8.25;;
50495;SDS011;38806;51.554;5.704;2023-01-28T08:48:36;15.05;;;8.55;;
50495;SDS011;38806;51.554;5.704;2023-01-28T08:50:38;13.45;;;7.75;;
50495;SDS011;38806;51.554;5.704;2023-01-28T08:52:38;18.63;;;8.50;;
50495;SDS011;38806;51.554;5.704;2023-01-28T08:54:38;16.67;;;8.90;;
50495;SDS011;38806;51.554;5.704;2023-01-28T08:56:38;17.77;;;8.63;;
50495;SDS011;38806;51.554;5.704;2023-01-28T08:58:41;15.02;;;8.52;;
50495;SDS011;38806;51.554;5.704;2023-01-28T09:00:42;19.73;;;8.55;;
50495;SDS011;38806;51.554;5.704;2023-01-28T09:02:42;18.20;;;8.60;;
50495;SDS011;38806;51.554;5.704;2023-01-28T09:04:43;15.38;;;7.82;;
50495;SDS011;38806;51.554;5.704;2023-01-28T09:06:43;17.60;;;9.25;;
50495;SDS011;38806;51.554;5.704;2023-01-28T09:08:43;18.67;;;9.30;;
50495;SDS011;38806;51.554;5.704;2023-01-28T09:10:43;16.90;;;9.48;;
50495;SDS011;38806;51.554;5.704;2023-01-28T09:12:44;16.63;;;8.90;;
50495;SDS011;38806;51.554;5.704;2023-01-28T09:14:44;19.02;;;9.88;;
50495;SDS011;38806;51.554;5.704;2023-01-28T09:16:44;16.02;;;9.20;;
50495;SDS011;38806;51.554;5.704;2023-01-28T09:18:44;15.98;;;9.32;;
50495;SDS011;38806;51.554;5.704;2023-01-28T09:20:44;16.40;;;8.73;;
50495;SDS011;38806;51.554;5.704;2023-01-28T09:22:45;16.55;;;8.18;;
50495;SDS011;38806;51.554;5.704;2023-01-28T09:24:45;16.05;;;8.48;;
50495;SDS011;38806;51.554;5.704;2023-01-28T09:26:47;16.25;;;8.82;;
50495;SDS011;38806;51.554;5.704;2023-01-28T09:28:47;18.45;;;10.50;;
50495;SDS011;38806;51.554;5.704;2023-01-28T09:30:48;15.57;;;9.18;;
50495;SDS011;38806;51.554;5.704;2023-01-28T09:32:48;14.75;;;9.23;;
50495;SDS011;38806;51.554;5.704;2023-01-28T09:34:49;16.70;;;10.45;;
50495;SDS011;38806;51.554;5.704;2023-01-28T09:36:49;16.08;;;9.98;;
50495;SDS011;38806;51.554;5.704;2023-01-28T09:38:49;16.85;;;9.18;;
50495;SDS011;38806;51.554;5.704;2023-01-28T09:40:49;16.95;;;9.05;;
50495;SDS011;38806;51.554;5.704;2023-01-28T09:45:00;13.73;;;8.77;;
50495;SDS011;38806;51.554;5.704;2023-01-28T09:47:01;17.80;;;8.20;;
50495;SDS011;38806;51.554;5.704;2023-01-28T09:49:04;13.65;;;8.80;;
50495;SDS011;38806;51.554;5.704;2023-01-28T09:51:09;18.50;;;9.05;;
50495;SDS011;38806;51.554;5.704;2023-01-28T09:53:11;14.57;;;7.95;;
50495;SDS011;38806;51.554;5.704;2023-01-28T09:55:21;19.23;;;9.40;;
50495;SDS011;38806;51.554;5.704;2023-01-28T09:57:24;15.77;;;8.48;;
50495;SDS011;38806;51.554;5.704;2023-01-28T09:59:25;22.67;;;9.55;;
50495;SDS011;38806;51.554;5.704;2023-01-28T10:14:39;17.77;;;10.00;;
50495;SDS011;38806;51.554;5.704;2023-01-28T10:16:54;17.27;;;8.73;;
50495;SDS011;38806;51.554;5.704;2023-01-28T10:19:13;18.60;;;8.48;;
50495;SDS011;38806;51.554;5.704;2023-01-28T10:21:22;16.70;;;9.93;;
50495;SDS011;38806;51.554;5.704;2023-01-28T10:23:35;18.23;;;9.68;;
50495;SDS011;38806;51.554;5.704;2023-01-28T10:25:38;20.05;;;10.65;;
50495;SDS011;38806;51.554;5.704;2023-01-28T10:27:40;18.45;;;9.80;;
50495;SDS011;38806;51.554;5.704;2023-01-28T10:29:41;19.40;;;8.35;;
50495;SDS011;38806;51.554;5.704;2023-01-28T10:31:52;19.05;;;9.13;;
50495;SDS011;38806;51.554;5.704;2023-01-28T10:33:52;17.33;;;9.50;;
50495;SDS011;38806;51.554;5.704;2023-01-28T10:35:53;20.95;;;11.00;;
50495;SDS011;38806;51.554;5.704;2023-01-28T10:37:56;22.17;;;10.20;;
50495;SDS011;38806;51.554;5.704;2023-01-28T10:40:00;21.25;;;10.60;;
50495;SDS011;38806;51.554;5.704;2023-01-28T10:42:07;18.02;;;10.00;;
50495;SDS011;38806;51.554;5.704;2023-01-28T10:44:12;20.90;;;9.10;;
50495;SDS011;38806;51.554;5.704;2023-01-28T10:46:31;20.17;;;11.52;;
50495;SDS011;38806;51.554;5.704;2023-01-28T10:48:32;20.75;;;9.68;;
50495;SDS011;38806;51.554;5.704;2023-01-28T10:50:34;17.35;;;9.90;;
50495;SDS011;38806;51.554;5.704;2023-01-28T10:52:34;18.75;;;9.85;;
50495;SDS011;38806;51.554;5.704;2023-01-28T10:54:34;17.05;;;9.00;;
50495;SDS011;38806;51.554;5.704;2023-01-28T10:56:34;18.45;;;9.50;;
50495;SDS011;38806;51.554;5.704;2023-01-28T10:58:36;19.98;;;10.93;;
50495;SDS011;38806;51.554;5.704;2023-01-28T11:00:45;18.30;;;9.15;;
50495;SDS011;38806;51.554;5.704;2023-01-28T11:02:46;16.25;;;8.88;;
50495;SDS011;38806;51.554;5.704;2023-01-28T11:04:47;20.40;;;11.98;;
50495;SDS011;38806;51.554;5.704;2023-01-28T11:08:56;21.65;;;10.15;;
50495;SDS011;38806;51.554;5.704;2023-01-28T11:10:56;19.50;;;9.35;;
50495;SDS011;38806;51.554;5.704;2023-01-28T11:12:57;16.55;;;8.57;;
50495;SDS011;38806;51.554;5.704;2023-01-28T11:14:59;18.33;;;9.65;;
50495;SDS011;38806;51.554;5.704;2023-01-28T11:16:59;15.98;;;8.85;;
50495;SDS011;38806;51.554;5.704;2023-01-28T11:19:01;14.38;;;9.05;;
50495;SDS011;38806;51.554;5.704;2023-01-28T11:21:03;18.25;;;10.63;;
50495;SDS011;38806;51.554;5.704;2023-01-28T11:23:04;15.90;;;8.50;;
50495;SDS011;38806;51.554;5.704;2023-01-28T11:27:15;18.15;;;9.93;;
50495;SDS011;38806;51.554;5.704;2023-01-28T11:31:23;17.95;;;8.45;;
50495;SDS011;38806;51.554;5.704;2023-01-28T11:35:26;17.75;;;9.43;;
50495;SDS011;38806;51.554;5.704;2023-01-28T11:37:29;16.90;;;9.77;;
50495;SDS011;38806;51.554;5.704;2023-01-28T11:39:29;13.23;;;7.55;;
50495;SDS011;38806;51.554;5.704;2023-01-28T11:41:30;15.48;;;8.05;;
50495;SDS011;38806;51.554;5.704;2023-01-28T11:43:31;12.40;;;7.18;;
50495;SDS011;38806;51.554;5.704;2023-01-28T11:45:37;12.07;;;7.20;;
50495;SDS011;38806;51.554;5.704;2023-01-28T11:49:57;11.75;;;7.28;;
50495;SDS011;38806;51.554;5.704;2023-01-28T11:58:53;13.60;;;7.18;;
50495;SDS011;38806;51.554;5.704;2023-01-28T12:09:24;10.45;;;6.55;;
50495;SDS011;38806;51.554;5.704;2023-01-28T12:11:30;8.80;;;5.43;;
50495;SDS011;38806;51.554;5.704;2023-01-28T12:22:23;11.77;;;7.80;;
50495;SDS011;38806;51.554;5.704;2023-01-28T12:40:19;11.43;;;6.65;;
50495;SDS011;38806;51.554;5.704;2023-01-28T12:42:25;14.18;;;7.50;;
50495;SDS011;38806;51.554;5.704;2023-01-28T12:44:28;10.38;;;7.72;;
50495;SDS011;38806;51.554;5.704;2023-01-28T12:48:34;10.10;;;6.67;;
50495;SDS011;38806;51.554;5.704;2023-01-28T12:50:41;11.60;;;6.65;;
50495;SDS011;38806;51.554;5.704;2023-01-28T12:52:46;10.02;;;6.68;;
50495;SDS011;38806;51.554;5.704;2023-01-28T12:54:54;10.05;;;6.45;;
50495;SDS011;38806;51.554;5.704;2023-01-28T12:56:55;9.70;;;5.80;;
50495;SDS011;38806;51.554;5.704;2023-01-28T12:58:57;11.88;;;7.50;;
50495;SDS011;38806;51.554;5.704;2023-01-28T13:01:00;12.07;;;8.07;;
50495;SDS011;38806;51.554;5.704;2023-01-28T13:05:05;14.27;;;8.13;;
50495;SDS011;38806;51.554;5.704;2023-01-28T13:07:20;10.55;;;7.00;;
50495;SDS011;38806;51.554;5.704;2023-01-28T13:09:23;12.95;;;6.97;;
50495;SDS011;38806;51.554;5.704;2023-01-28T13:11:24;11.75;;;6.60;;
50495;SDS011;38806;51.554;5.704;2023-01-28T13:13:31;11.20;;;6.78;;
50495;SDS011;38806;51.554;5.704;2023-01-28T13:15:41;13.57;;;8.75;;
50495;SDS011;38806;51.554;5.704;2023-01-28T13:17:56;12.10;;;7.05;;
50495;SDS011;38806;51.554;5.704;2023-01-28T13:19:59;12.95;;;8.30;;
50495;SDS011;38806;51.554;5.704;2023-01-28T13:22:08;12.35;;;8.00;;
50495;SDS011;38806;51.554;5.704;2023-01-28T13:28:25;12.10;;;7.65;;
50495;SDS011;38806;51.554;5.704;2023-01-28T13:30:27;9.45;;;4.82;;
50495;SDS011;38806;51.554;5.704;2023-01-28T13:32:32;14.43;;;8.38;;
50495;SDS011;38806;51.554;5.704;2023-01-28T13:34:34;13.77;;;7.95;;
50495;SDS011;38806;51.554;5.704;2023-01-28T13:36:42;12.65;;;7.63;;